createdAt,value
2018-08-04T00:01:53.915Z,6.20
2018-08-04T00:04:22.602Z,6.20
2018-08-04T00:06:51.055Z,6.40
2018-08-04T00:09:20.108Z,6.80
2018-08-04T00:11:48.558Z,5.47
2018-08-04T00:14:17.021Z,7.53
2018-08-04T00:16:45.794Z,8.03
2018-08-04T00:19:14.238Z,6.67
2018-08-04T00:21:42.710Z,7.50
2018-08-04T00:24:11.174Z,7.10
2018-08-04T00:26:39.606Z,7.43
2018-08-04T00:29:08.070Z,6.80
2018-08-04T00:31:36.531Z,6.13
2018-08-04T00:34:04.971Z,9.57
2018-08-04T00:36:33.674Z,7.87
2018-08-04T00:39:02.154Z,8.23
2018-08-04T00:41:30.840Z,7.40
2018-08-04T00:43:59.897Z,6.83
2018-08-04T00:46:28.617Z,6.27
2018-08-04T00:48:57.713Z,6.80
2018-08-04T00:51:26.155Z,7.00
2018-08-04T00:53:54.614Z,6.30
2018-08-04T00:56:22.811Z,6.47
2018-08-04T00:58:51.250Z,8.77
2018-08-04T01:01:20.101Z,7.13
2018-08-04T01:03:48.534Z,5.87
2018-08-04T01:06:17.064Z,10.30
2018-08-04T01:08:45.899Z,8.60
2018-08-04T01:11:15.551Z,7.63
2018-08-04T01:13:44.178Z,7.17
2018-08-04T01:16:12.908Z,6.90
2018-08-04T01:18:41.383Z,7.23
2018-08-04T01:21:10.142Z,6.70
2018-08-04T01:23:38.897Z,7.27
2018-08-04T01:26:07.394Z,8.70
2018-08-04T01:28:35.518Z,8.70
2018-08-04T01:31:04.035Z,7.33
2018-08-04T01:33:32.807Z,8.73
2018-08-04T01:36:01.303Z,6.43
2018-08-04T01:38:30.091Z,8.93
2018-08-04T01:40:58.596Z,7.90
2018-08-04T01:43:27.267Z,6.87
2018-08-04T01:45:55.741Z,8.17
2018-08-04T01:48:24.175Z,5.33
2018-08-04T01:50:52.891Z,5.73
2018-08-04T01:53:21.341Z,7.87
2018-08-04T01:55:49.850Z,7.20
2018-08-04T01:58:18.419Z,6.00
2018-08-04T02:00:46.930Z,6.37
2018-08-04T02:03:15.439Z,7.67
2018-08-04T02:05:43.951Z,6.83
2018-08-04T02:08:13.486Z,6.73
2018-08-04T02:10:41.986Z,10.13
2018-08-04T02:13:10.430Z,5.40
2018-08-04T02:15:39.268Z,7.47
2018-08-04T02:18:07.713Z,9.47
2018-08-04T02:20:36.184Z,6.13
2018-08-04T02:23:04.914Z,6.60
2018-08-04T02:25:33.638Z,5.70
2018-08-04T02:28:02.066Z,9.20
2018-08-04T02:30:30.539Z,5.90
2018-08-04T02:32:58.990Z,5.80
2018-08-04T02:35:28.093Z,5.93
2018-08-04T02:37:56.539Z,6.63
2018-08-04T02:40:25.346Z,6.03
2018-08-04T02:42:54.117Z,5.10
2018-08-04T02:45:22.594Z,5.90
2018-08-04T02:47:51.034Z,6.00
2018-08-04T02:50:19.508Z,5.23
2018-08-04T02:52:47.943Z,6.57
2018-08-04T02:55:16.399Z,8.30
2018-08-04T02:57:44.839Z,5.73
2018-08-04T03:00:13.624Z,5.80
2018-08-04T03:02:42.352Z,8.07
2018-08-04T03:05:10.876Z,6.37
2018-08-04T03:07:39.362Z,5.67
2018-08-04T03:10:07.899Z,6.03
2018-08-04T03:12:36.631Z,5.13
2018-08-04T03:15:05.618Z,5.87
2018-08-04T03:17:34.425Z,6.40
2018-08-04T03:20:02.927Z,4.43
2018-08-04T03:22:31.610Z,6.27
2018-08-04T03:25:00.394Z,7.97
2018-08-04T03:27:28.863Z,5.60
2018-08-04T03:29:57.343Z,6.13
2018-08-04T03:32:25.813Z,6.23
2018-08-04T03:34:54.595Z,7.20
2018-08-04T03:37:23.063Z,5.50
2018-08-04T03:39:51.510Z,5.80
2018-08-04T03:42:19.967Z,6.20
2018-08-04T03:44:48.411Z,6.20
2018-08-04T03:47:17.175Z,6.97
2018-08-04T03:49:45.675Z,7.00
2018-08-04T03:52:14.171Z,7.20
2018-08-04T03:54:42.659Z,6.63
2018-08-04T03:57:11.144Z,5.47
2018-08-04T03:59:39.679Z,8.10
2018-08-04T04:02:08.104Z,6.23
2018-08-04T04:04:36.593Z,5.43
2018-08-04T04:07:05.154Z,9.80
2018-08-04T04:09:33.651Z,7.07
2018-08-04T04:12:02.125Z,6.70
2018-08-04T04:14:30.575Z,7.77
2018-08-04T04:16:59.047Z,8.83
2018-08-04T04:19:27.519Z,7.57
2018-08-04T04:21:56.279Z,7.03
2018-08-04T04:24:24.988Z,6.70
2018-08-04T04:26:54.087Z,7.17
2018-08-04T04:29:22.903Z,9.33
2018-08-04T04:31:51.374Z,6.50
2018-08-04T04:34:20.157Z,9.13
2018-08-04T04:36:48.664Z,6.47
2018-08-04T04:39:17.128Z,6.80
2018-08-04T04:41:45.567Z,7.13
2018-08-04T04:44:14.031Z,10.53
2018-08-04T04:46:42.510Z,8.90
2018-08-04T04:49:12.051Z,7.07
2018-08-04T04:51:41.478Z,5.40
2018-08-04T04:54:09.995Z,6.40
2018-08-04T04:56:38.526Z,6.20
2018-08-04T04:59:06.999Z,9.03
2018-08-04T05:01:35.731Z,6.73
2018-08-04T05:04:04.194Z,8.23
2018-08-04T05:06:32.680Z,6.67
2018-08-04T05:09:01.371Z,6.70
2018-08-04T05:11:29.883Z,10.03
2018-08-04T05:13:58.315Z,13.23
2018-08-04T05:16:26.798Z,9.23
2018-08-04T05:18:59.041Z,8.30
2018-08-04T05:21:29.717Z,9.57
2018-08-04T05:23:58.510Z,6.07
2018-08-04T05:26:27.475Z,5.83
2018-08-04T05:28:56.517Z,12.40
2018-08-04T05:31:24.682Z,6.13
2018-08-04T05:33:53.481Z,6.30
2018-08-04T05:36:22.514Z,6.07
2018-08-04T05:38:51.303Z,7.23
2018-08-04T05:41:20.090Z,8.60
2018-08-04T05:43:49.082Z,6.40
2018-08-04T05:46:17.599Z,6.87
2018-08-04T05:48:46.062Z,9.43
2018-08-04T05:51:14.569Z,9.00
2018-08-04T05:53:43.544Z,6.70
2018-08-04T05:56:12.030Z,6.40
2018-08-04T05:58:40.151Z,11.83
2018-08-04T06:01:08.747Z,9.60
2018-08-04T06:03:37.487Z,7.20
2018-08-04T06:06:06.080Z,6.07
2018-08-04T06:08:35.203Z,8.33
2018-08-04T06:11:03.683Z,11.03
2018-08-04T06:13:32.734Z,6.40
2018-08-04T06:16:01.432Z,6.40
2018-08-04T06:18:29.906Z,9.07
2018-08-04T06:20:58.431Z,6.90
2018-08-04T06:23:26.942Z,6.10
2018-08-04T06:25:55.078Z,10.87
2018-08-04T06:28:23.615Z,6.70
2018-08-04T06:30:52.071Z,9.83
2018-08-04T06:33:20.830Z,6.67
2018-08-04T06:35:49.351Z,10.90
2018-08-04T06:38:18.172Z,7.03
2018-08-04T06:40:46.617Z,7.33
2018-08-04T06:43:15.091Z,6.60
2018-08-04T06:45:43.534Z,8.13
2018-08-04T06:48:12.031Z,7.03
2018-08-04T06:50:40.162Z,9.03
2018-08-04T06:53:08.675Z,7.40
2018-08-04T06:55:37.387Z,7.03
2018-08-04T06:58:06.245Z,9.83
2018-08-04T07:00:34.683Z,6.40
2018-08-04T07:03:03.223Z,12.27
2018-08-04T07:05:32.258Z,7.10
2018-08-04T07:08:00.783Z,8.33
2018-08-04T07:10:29.273Z,8.70
2018-08-04T07:12:58.062Z,6.97
2018-08-04T07:15:26.524Z,8.57
2018-08-04T07:17:55.321Z,12.10
2018-08-04T07:20:23.447Z,6.90
2018-08-04T07:22:51.970Z,7.33
2018-08-04T07:25:20.675Z,7.70
2018-08-04T07:27:49.160Z,8.80
2018-08-04T07:30:17.622Z,9.80
2018-08-04T07:32:46.302Z,7.90
2018-08-04T07:35:15.091Z,12.60
2018-08-04T07:37:43.878Z,9.50
2018-08-04T07:40:12.357Z,7.40
2018-08-04T07:42:40.866Z,7.33
2018-08-04T07:45:09.327Z,8.83
2018-08-04T07:47:37.843Z,7.27
2018-08-04T07:50:06.749Z,8.03
2018-08-04T07:52:35.270Z,12.00
2018-08-04T07:55:03.811Z,8.53
2018-08-04T07:57:32.566Z,12.03
2018-08-04T08:00:01.344Z,11.77
2018-08-04T08:02:29.832Z,10.60
2018-08-04T08:04:58.360Z,12.93
2018-08-04T08:07:27.079Z,9.23
2018-08-04T08:09:55.575Z,12.07
2018-08-04T08:12:24.319Z,10.83
2018-08-04T08:14:52.991Z,11.60
2018-08-04T08:17:21.565Z,10.83
2018-08-04T08:19:50.278Z,11.17
2018-08-04T08:22:18.787Z,13.30
2018-08-04T08:24:47.264Z,15.00
2018-08-04T08:27:15.774Z,10.13
2018-08-04T08:29:44.589Z,9.07
2018-08-04T08:32:13.312Z,13.00
2018-08-04T08:34:41.778Z,9.20
2018-08-04T08:37:10.273Z,9.60
2018-08-04T08:39:39.003Z,9.83
2018-08-04T08:42:07.516Z,9.13
2018-08-04T08:44:36.270Z,12.77
2018-08-04T08:47:04.775Z,9.83
2018-08-04T08:49:33.286Z,8.33
2018-08-04T08:52:02.191Z,9.50
2018-08-04T08:54:30.373Z,9.47
2018-08-04T08:56:59.100Z,10.70
2018-08-04T08:59:27.834Z,9.50
2018-08-04T09:01:56.279Z,8.90
2018-08-04T09:04:24.747Z,11.67
2018-08-04T09:06:53.229Z,15.17
2018-08-04T09:09:21.714Z,10.07
2018-08-04T09:11:50.220Z,11.13
2018-08-04T09:14:18.729Z,11.00
2018-08-04T09:16:47.174Z,10.20
2018-08-04T09:19:15.658Z,11.83
2018-08-04T09:21:43.866Z,9.50
2018-08-04T09:24:12.351Z,9.20
2018-08-04T09:26:40.812Z,13.37
2018-08-04T09:29:09.536Z,9.20
2018-08-04T09:31:38.471Z,9.83
2018-08-04T09:34:07.002Z,9.80
2018-08-04T09:36:35.730Z,9.90
2018-08-04T09:39:06.097Z,9.70
2018-08-04T09:41:35.947Z,10.20
2018-08-04T09:44:04.426Z,9.90
2018-08-04T09:46:33.229Z,9.63
2018-08-04T09:49:01.735Z,10.80
2018-08-04T09:51:30.436Z,9.60
2018-08-04T09:53:59.539Z,15.93
2018-08-04T09:56:28.007Z,9.07
2018-08-04T09:58:57.140Z,9.90
2018-08-04T10:01:31.022Z,14.63
2018-08-04T10:04:00.113Z,9.90
2018-08-04T10:06:28.585Z,10.77
2018-08-04T10:08:57.047Z,9.47
2018-08-04T10:11:25.605Z,9.63
2018-08-04T10:13:54.291Z,10.07
2018-08-04T10:16:22.781Z,10.70
2018-08-04T10:18:51.569Z,9.53
2018-08-04T10:21:20.126Z,11.83
2018-08-04T10:23:48.938Z,11.63
2018-08-04T10:26:17.687Z,16.07
2018-08-04T10:28:46.167Z,9.13
2018-08-04T10:31:14.951Z,16.20
2018-08-04T10:33:43.454Z,9.00
2018-08-04T10:36:11.907Z,15.03
2018-08-04T10:38:40.463Z,10.77
2018-08-04T10:41:08.889Z,13.77
2018-08-04T10:43:37.049Z,11.80
2018-08-04T10:46:05.593Z,15.07
2018-08-04T10:48:34.067Z,8.80
2018-08-04T10:51:02.550Z,9.10
2018-08-04T10:53:31.059Z,10.97
2018-08-04T10:55:59.557Z,9.50
2018-08-04T10:58:28.305Z,11.87
2018-08-04T11:00:57.015Z,12.13
2018-08-04T11:03:25.507Z,8.43
2018-08-04T11:05:55.111Z,10.40
2018-08-04T11:08:23.570Z,35.37
2018-08-04T11:10:52.041Z,21.50
2018-08-04T11:13:21.307Z,9.57
2018-08-04T11:15:49.842Z,11.30
2018-08-04T11:18:18.319Z,8.90
2018-08-04T11:20:47.106Z,8.27
2018-08-04T11:23:15.577Z,10.87
2018-08-04T11:25:44.078Z,8.10
2018-08-04T11:28:12.839Z,13.80
2018-08-04T11:30:41.614Z,7.57
2018-08-04T11:33:10.077Z,7.30
2018-08-04T11:35:38.623Z,6.63
2018-08-04T11:38:07.067Z,7.67
2018-08-04T11:40:35.895Z,7.40
2018-08-04T11:43:04.338Z,7.40
2018-08-04T11:45:32.839Z,7.40
2018-08-04T11:48:01.300Z,8.30
2018-08-04T11:50:30.122Z,7.33
2018-08-04T11:52:58.641Z,7.33
2018-08-04T11:55:27.111Z,7.10
2018-08-04T11:57:55.971Z,11.73
2018-08-04T12:00:24.464Z,7.13
2018-08-04T12:02:52.907Z,6.63
2018-08-04T12:05:21.427Z,6.57
2018-08-04T12:07:50.227Z,7.93
2018-08-04T12:10:19.288Z,7.57
2018-08-04T12:12:47.903Z,7.33
2018-08-04T12:15:16.566Z,7.27
2018-08-04T12:17:45.024Z,7.83
2018-08-04T12:20:13.489Z,7.50
2018-08-04T12:22:41.997Z,7.57
2018-08-04T12:25:10.463Z,9.30
2018-08-04T12:27:39.639Z,9.60
2018-08-04T12:30:09.131Z,10.53
2018-08-04T12:32:38.244Z,8.17
2018-08-04T12:35:08.036Z,11.20
2018-08-04T12:37:36.889Z,8.20
2018-08-04T12:40:05.394Z,7.77
2018-08-04T12:42:33.887Z,8.00
2018-08-04T12:45:02.559Z,8.47
2018-08-04T12:47:31.100Z,8.10
2018-08-04T12:50:00.026Z,8.07
2018-08-04T12:52:28.473Z,8.80
2018-08-04T12:54:56.963Z,7.53
2018-08-04T12:57:25.447Z,7.83
2018-08-04T12:59:53.950Z,6.13
2018-08-04T13:02:22.725Z,6.00
2018-08-04T13:04:51.302Z,7.17
2018-08-04T13:07:19.753Z,7.10
2018-08-04T13:09:48.499Z,7.20
2018-08-04T13:12:16.941Z,7.00
2018-08-04T13:14:45.464Z,6.90
2018-08-04T13:17:13.956Z,7.20
2018-08-04T13:19:42.445Z,6.83
2018-08-04T13:22:10.914Z,6.60
2018-08-04T13:24:39.373Z,7.17
2018-08-04T13:27:08.067Z,10.63
2018-08-04T13:29:36.618Z,6.70
2018-08-04T13:32:05.120Z,6.70
2018-08-04T13:34:33.651Z,6.90
2018-08-04T13:37:02.195Z,6.63
2018-08-04T13:39:30.904Z,7.47
2018-08-04T13:41:59.106Z,7.00
2018-08-04T13:44:27.567Z,6.80
2018-08-04T13:46:56.062Z,7.40
2018-08-04T13:49:24.596Z,7.00
2018-08-04T13:51:53.099Z,9.93
2018-08-04T13:54:21.659Z,7.73
2018-08-04T13:56:50.159Z,11.50
2018-08-04T13:59:18.622Z,13.83
2018-08-04T14:01:47.124Z,7.97
2018-08-04T14:04:15.903Z,7.40
2018-08-04T14:06:44.731Z,8.20
2018-08-04T14:09:13.247Z,9.90
2018-08-04T14:11:41.780Z,9.87
2018-08-04T14:14:10.616Z,8.20
2018-08-04T14:16:39.160Z,8.43
2018-08-04T14:19:07.728Z,7.77
2018-08-04T14:21:36.591Z,10.90
2018-08-04T14:24:05.140Z,8.70
2018-08-04T14:26:33.618Z,9.60
2018-08-04T14:29:02.180Z,8.77
2018-08-04T14:31:30.728Z,8.83
2018-08-04T14:33:59.221Z,8.53
2018-08-04T14:36:27.709Z,9.37
2018-08-04T14:38:56.201Z,8.50
2018-08-04T14:41:25.066Z,8.20
2018-08-04T14:43:53.566Z,7.23
2018-08-04T14:46:22.136Z,8.70
2018-08-04T14:48:50.608Z,7.60
2018-08-04T14:51:19.192Z,8.37
2018-08-04T14:53:47.641Z,8.70
2018-08-04T14:56:16.160Z,7.90
2018-08-04T14:58:45.905Z,13.27
2018-08-04T15:01:15.652Z,13.90
2018-08-04T15:03:44.438Z,9.10
2018-08-04T15:06:12.975Z,9.20
2018-08-04T15:08:41.754Z,7.07
2018-08-04T15:11:10.245Z,8.30
2018-08-04T15:13:38.724Z,7.70
2018-08-04T15:16:07.526Z,6.30
2018-08-04T15:18:36.238Z,7.10
2018-08-04T15:21:04.735Z,8.10
2018-08-04T15:23:33.189Z,9.17
2018-08-04T15:26:01.695Z,7.93
2018-08-04T15:28:30.270Z,7.00
2018-08-04T15:30:58.775Z,7.77
2018-08-04T15:33:27.267Z,8.47
2018-08-04T15:35:56.011Z,8.83
2018-08-04T15:38:24.849Z,7.27
2018-08-04T15:40:53.344Z,6.73
2018-08-04T15:43:21.840Z,7.30
2018-08-04T15:45:50.690Z,6.77
2018-08-04T15:48:19.137Z,7.00
2018-08-04T15:50:47.731Z,7.03
2018-08-04T15:53:16.476Z,7.70
2018-08-04T15:55:44.925Z,6.37
2018-08-04T15:58:13.412Z,6.90
2018-08-04T16:00:41.904Z,6.70
2018-08-04T16:03:10.388Z,9.80
2018-08-04T16:05:38.876Z,6.47
2018-08-04T16:08:07.458Z,7.10
2018-08-04T16:10:35.923Z,7.13
2018-08-04T16:13:04.427Z,6.83
2018-08-04T16:15:32.914Z,7.90
2018-08-04T16:18:01.397Z,6.67
2018-08-04T16:20:29.857Z,8.43
2018-08-04T16:22:58.626Z,6.70
2018-08-04T16:25:27.356Z,7.20
2018-08-04T16:27:55.839Z,7.07
2018-08-04T16:30:24.577Z,6.57
2018-08-04T16:32:53.074Z,7.47
2018-08-04T16:35:21.559Z,7.90
2018-08-04T16:37:50.067Z,6.83
2018-08-04T16:40:18.527Z,7.23
2018-08-04T16:42:47.014Z,7.30
2018-08-04T16:45:15.796Z,6.93
2018-08-04T16:47:44.305Z,8.00
2018-08-04T16:50:12.776Z,8.23
2018-08-04T16:52:41.245Z,6.90
2018-08-04T16:55:09.730Z,6.80
2018-08-04T16:57:38.214Z,9.93
2018-08-04T17:00:07.523Z,7.63
2018-08-04T17:02:36.295Z,7.90
2018-08-04T17:05:04.856Z,7.70
2018-08-04T17:07:33.354Z,12.37
2018-08-04T17:10:01.848Z,8.97
2018-08-04T17:12:30.383Z,9.10
2018-08-04T17:14:58.878Z,8.70
2018-08-04T17:17:27.404Z,7.70
2018-08-04T17:19:56.761Z,7.57
2018-08-04T17:22:25.598Z,7.37
2018-08-04T17:24:54.112Z,8.03
2018-08-04T17:27:22.596Z,6.57
2018-08-04T17:29:51.127Z,7.07
2018-08-04T17:32:19.603Z,7.33
2018-08-04T17:34:48.086Z,7.20
2018-08-04T17:37:16.661Z,10.73
2018-08-04T17:39:45.355Z,12.20
2018-08-04T17:42:13.827Z,7.17
2018-08-04T17:44:42.316Z,7.00
2018-08-04T17:47:10.819Z,7.60
2018-08-04T17:49:39.328Z,8.70
2018-08-04T17:52:07.824Z,11.07
2018-08-04T17:54:36.545Z,9.90
2018-08-04T17:57:05.258Z,8.53
2018-08-04T17:59:34.306Z,7.63
2018-08-04T18:02:02.795Z,8.90
2018-08-04T18:04:31.257Z,7.30
2018-08-04T18:06:59.774Z,7.80
2018-08-04T18:09:28.248Z,8.73
2018-08-04T18:11:56.757Z,8.63
2018-08-04T18:14:25.192Z,7.70
2018-08-04T18:16:53.650Z,7.30
2018-08-04T18:19:22.108Z,7.97
2018-08-04T18:21:50.671Z,7.80
2018-08-04T18:24:19.142Z,8.30
2018-08-04T18:26:47.281Z,9.33
2018-08-04T18:29:15.760Z,9.93
2018-08-04T18:31:44.212Z,12.60
2018-08-04T18:34:12.757Z,8.47
2018-08-04T18:36:41.216Z,8.80
2018-08-04T18:39:10.244Z,9.60
2018-08-04T18:41:38.759Z,9.00
2018-08-04T18:44:07.311Z,8.03
2018-08-04T18:46:35.773Z,8.47
2018-08-04T18:49:04.255Z,8.17
2018-08-04T18:51:32.712Z,9.00
2018-08-04T18:54:01.203Z,7.83
2018-08-04T18:56:29.675Z,10.63
2018-08-04T18:58:57.869Z,7.50
2018-08-04T19:01:26.333Z,7.10
2018-08-04T19:03:54.809Z,7.03
2018-08-04T19:06:23.359Z,6.50
2018-08-04T19:08:52.186Z,6.47
2018-08-04T19:11:20.667Z,6.67
2018-08-04T19:13:49.197Z,6.63
2018-08-04T19:16:17.711Z,6.90
2018-08-04T19:18:46.176Z,6.60
2018-08-04T19:21:14.626Z,7.50
2018-08-04T19:23:43.153Z,7.17
2018-08-04T19:26:11.616Z,6.80
2018-08-04T19:28:40.796Z,7.70
2018-08-04T19:31:09.262Z,9.00
2018-08-04T19:33:37.734Z,6.50
2018-08-04T19:36:06.230Z,7.60
2018-08-04T19:38:34.720Z,6.13
2018-08-04T19:41:03.186Z,8.13
2018-08-04T19:43:31.675Z,5.30
2018-08-04T19:46:00.441Z,5.80
2018-08-04T19:48:28.936Z,6.87
2018-08-04T19:50:57.688Z,6.53
2018-08-04T19:53:26.481Z,6.93
2018-08-04T19:55:54.926Z,6.30
2018-08-04T19:58:23.416Z,8.97
2018-08-04T20:00:51.910Z,4.83
2018-08-04T20:03:20.403Z,5.67
2018-08-04T20:05:48.875Z,7.00
2018-08-04T20:08:17.475Z,10.20
2018-08-04T20:10:46.031Z,5.33
2018-08-04T20:13:14.612Z,5.40
2018-08-04T20:15:43.183Z,5.73
2018-08-04T20:18:11.695Z,5.60
2018-08-04T20:20:40.151Z,4.30
2018-08-04T20:23:08.693Z,6.70
2018-08-04T20:25:37.155Z,4.83
2018-08-04T20:28:06.020Z,5.97
2018-08-04T20:30:34.490Z,3.70
2018-08-04T20:33:05.307Z,4.10
2018-08-04T20:35:33.846Z,3.50
2018-08-04T20:38:02.004Z,3.33
2018-08-04T20:40:30.450Z,3.20
2018-08-04T20:42:58.908Z,3.80
2018-08-04T20:45:27.386Z,2.63
2018-08-04T20:47:55.883Z,4.47
2018-08-04T20:50:24.363Z,3.27
2018-08-04T20:52:52.892Z,3.43
2018-08-04T20:55:21.377Z,2.77
2018-08-04T20:57:49.843Z,2.73
2018-08-04T21:00:18.015Z,4.80
2018-08-04T21:02:46.478Z,2.90
2018-08-04T21:05:15.021Z,2.30
2018-08-04T21:07:43.483Z,2.30
2018-08-04T21:10:11.971Z,4.60
2018-08-04T21:12:40.441Z,6.53
2018-08-04T21:15:09.041Z,3.30
2018-08-04T21:17:37.503Z,3.53
2018-08-04T21:20:06.364Z,3.10
2018-08-04T21:22:34.846Z,2.73
2018-08-04T21:25:03.386Z,2.53
2018-08-04T21:27:31.972Z,4.03
2018-08-04T21:30:01.071Z,2.30
2018-08-04T21:32:29.216Z,3.97
2018-08-04T21:34:57.687Z,4.30
2018-08-04T21:37:26.158Z,2.30
2018-08-04T21:39:54.727Z,5.40
2018-08-04T21:42:23.211Z,2.63
2018-08-04T21:44:51.982Z,3.73
2018-08-04T21:47:20.455Z,3.40
2018-08-04T21:49:49.459Z,2.50
2018-08-04T21:52:17.964Z,3.77
2018-08-04T21:54:46.448Z,3.03
2018-08-04T21:57:15.163Z,2.43
2018-08-04T21:59:43.819Z,4.50
2018-08-04T22:02:12.297Z,3.70
2018-08-04T22:04:40.780Z,4.23
2018-08-04T22:07:48.301Z,4.20
2018-08-04T22:10:17.136Z,4.40
2018-08-04T22:12:45.898Z,4.30
2018-08-04T22:15:15.370Z,3.27
2018-08-04T22:17:43.812Z,4.90
2018-08-04T22:20:14.638Z,3.10
2018-08-04T22:22:43.473Z,3.43
2018-08-04T22:25:13.519Z,3.40
2018-08-04T22:27:42.057Z,4.60
2018-08-04T22:30:12.821Z,2.83
2018-08-04T22:32:41.893Z,3.53
2018-08-04T22:35:10.558Z,5.07
2018-08-04T22:37:39.601Z,2.43
2018-08-04T22:40:09.281Z,6.10
2018-08-04T22:42:38.058Z,2.60
2018-08-04T22:45:55.272Z,2.87
2018-08-04T22:48:24.231Z,2.90
2018-08-04T22:50:52.690Z,4.60
2018-08-04T22:53:21.158Z,5.80
2018-08-04T22:55:49.674Z,3.10
2018-08-04T22:58:18.171Z,4.73
2018-08-04T23:00:46.331Z,2.30
2018-08-04T23:03:15.253Z,4.67
2018-08-04T23:05:43.920Z,3.30
2018-08-04T23:08:13.133Z,2.93
2018-08-04T23:10:42.035Z,2.93
2018-08-04T23:13:11.338Z,2.80
2018-08-04T23:15:39.912Z,2.93
2018-08-04T23:18:08.831Z,4.40
2018-08-04T23:20:37.418Z,2.43
2018-08-04T23:23:06.231Z,3.20
2018-08-04T23:25:34.728Z,2.57
2018-08-04T23:28:03.470Z,2.17
2018-08-04T23:30:32.346Z,3.70
2018-08-04T23:33:01.107Z,7.87
2018-08-04T23:35:29.643Z,5.77
2018-08-04T23:37:58.088Z,6.90
2018-08-04T23:40:26.650Z,2.63
2018-08-04T23:42:55.105Z,3.70
2018-08-04T23:45:23.684Z,6.00
2018-08-04T23:47:52.136Z,2.47
2018-08-04T23:50:20.913Z,2.20
2018-08-04T23:52:49.667Z,2.50
2018-08-04T23:55:19.034Z,3.10
2018-08-04T23:57:47.482Z,2.20
